sensor_id;sensor_type;location;lat;lon;timestamp;P1;durP1;ratioP1;P2;durP2;ratioP2
52248;SDS011;38541;48.130;8.378;2022-11-14T00:02:28;1.42;;;1.33;;
52248;SDS011;38541;48.130;8.378;2022-11-14T00:05:12;1.80;;;1.70;;
52248;SDS011;38541;48.130;8.378;2022-11-14T00:07:58;1.30;;;1.30;;
52248;SDS011;38541;48.130;8.378;2022-11-14T00:10:44;1.23;;;1.17;;
52248;SDS011;38541;48.130;8.378;2022-11-14T00:13:32;1.40;;;1.40;;
52248;SDS011;38541;48.130;8.378;2022-11-14T00:16:17;1.27;;;1.27;;
52248;SDS011;38541;48.130;8.378;2022-11-14T00:19:02;1.42;;;1.35;;
52248;SDS011;38541;48.130;8.378;2022-11-14T00:21:47;2.08;;;1.98;;
52248;SDS011;38541;48.130;8.378;2022-11-14T00:24:32;1.60;;;1.50;;
52248;SDS011;38541;48.130;8.378;2022-11-14T00:27:17;1.20;;;1.13;;
52248;SDS011;38541;48.130;8.378;2022-11-14T00:30:02;1.52;;;1.33;;
52248;SDS011;38541;48.130;8.378;2022-11-14T00:32:47;1.33;;;1.23;;
52248;SDS011;38541;48.130;8.378;2022-11-14T00:35:32;1.20;;;1.20;;
52248;SDS011;38541;48.130;8.378;2022-11-14T00:38:17;1.10;;;1.10;;
52248;SDS011;38541;48.130;8.378;2022-11-14T00:41:02;1.33;;;1.27;;
52248;SDS011;38541;48.130;8.378;2022-11-14T00:43:46;1.40;;;1.30;;
52248;SDS011;38541;48.130;8.378;2022-11-14T00:46:32;1.08;;;1.08;;
52248;SDS011;38541;48.130;8.378;2022-11-14T00:49:17;1.20;;;1.10;;
52248;SDS011;38541;48.130;8.378;2022-11-14T00:52:02;1.30;;;1.30;;
52248;SDS011;38541;48.130;8.378;2022-11-14T00:54:47;1.58;;;1.25;;
52248;SDS011;38541;48.130;8.378;2022-11-14T00:57:32;1.10;;;1.10;;
52248;SDS011;38541;48.130;8.378;2022-11-14T01:00:17;1.83;;;1.30;;
52248;SDS011;38541;48.130;8.378;2022-11-14T01:03:02;1.50;;;1.40;;
52248;SDS011;38541;48.130;8.378;2022-11-14T01:05:47;1.25;;;1.20;;
52248;SDS011;38541;48.130;8.378;2022-11-14T01:08:34;1.40;;;1.30;;
52248;SDS011;38541;48.130;8.378;2022-11-14T01:11:19;1.80;;;1.70;;
52248;SDS011;38541;48.130;8.378;2022-11-14T01:14:06;1.27;;;1.20;;
52248;SDS011;38541;48.130;8.378;2022-11-14T01:16:52;1.10;;;1.10;;
52248;SDS011;38541;48.130;8.378;2022-11-14T01:19:37;1.63;;;1.52;;
52248;SDS011;38541;48.130;8.378;2022-11-14T01:22:21;1.45;;;1.35;;
52248;SDS011;38541;48.130;8.378;2022-11-14T01:25:07;1.17;;;1.15;;
52248;SDS011;38541;48.130;8.378;2022-11-14T01:27:52;2.75;;;1.20;;
52248;SDS011;38541;48.130;8.378;2022-11-14T01:30:37;1.30;;;1.20;;
52248;SDS011;38541;48.130;8.378;2022-11-14T01:33:22;1.65;;;1.55;;
52248;SDS011;38541;48.130;8.378;2022-11-14T01:36:07;1.45;;;1.35;;
52248;SDS011;38541;48.130;8.378;2022-11-14T01:38:54;1.20;;;1.20;;
52248;SDS011;38541;48.130;8.378;2022-11-14T01:41:39;1.52;;;1.42;;
52248;SDS011;38541;48.130;8.378;2022-11-14T01:47:35;1.98;;;1.88;;
52248;SDS011;38541;48.130;8.378;2022-11-14T01:50:20;1.73;;;1.60;;
52248;SDS011;38541;48.130;8.378;2022-11-14T01:53:05;2.10;;;1.92;;
52248;SDS011;38541;48.130;8.378;2022-11-14T01:55:51;2.15;;;1.52;;
52248;SDS011;38541;48.130;8.378;2022-11-14T01:58:38;1.60;;;1.50;;
52248;SDS011;38541;48.130;8.378;2022-11-14T02:01:28;2.03;;;1.80;;
52248;SDS011;38541;48.130;8.378;2022-11-14T02:04:17;2.03;;;1.70;;
52248;SDS011;38541;48.130;8.378;2022-11-14T02:07:05;3.53;;;2.10;;
52248;SDS011;38541;48.130;8.378;2022-11-14T02:12:38;3.53;;;1.92;;
52248;SDS011;38541;48.130;8.378;2022-11-14T02:15:23;38.58;;;4.22;;
52248;SDS011;38541;48.130;8.378;2022-11-14T02:18:10;14.10;;;2.88;;
52248;SDS011;38541;48.130;8.378;2022-11-14T02:20:55;27.50;;;2.50;;
52248;SDS011;38541;48.130;8.378;2022-11-14T02:23:40;16.38;;;3.45;;
52248;SDS011;38541;48.130;8.378;2022-11-14T02:26:25;10.35;;;2.25;;
52248;SDS011;38541;48.130;8.378;2022-11-14T02:29:10;10.98;;;2.65;;
52248;SDS011;38541;48.130;8.378;2022-11-14T02:31:56;2.20;;;2.00;;
52248;SDS011;38541;48.130;8.378;2022-11-14T02:34:41;2.92;;;2.60;;
52248;SDS011;38541;48.130;8.378;2022-11-14T02:37:26;2.70;;;2.30;;
52248;SDS011;38541;48.130;8.378;2022-11-14T02:40:11;1.80;;;1.70;;
52248;SDS011;38541;48.130;8.378;2022-11-14T02:42:56;2.75;;;2.05;;
52248;SDS011;38541;48.130;8.378;2022-11-14T02:45:41;2.05;;;1.95;;
52248;SDS011;38541;48.130;8.378;2022-11-14T02:48:25;2.42;;;2.22;;
52248;SDS011;38541;48.130;8.378;2022-11-14T02:51:11;2.63;;;2.17;;
52248;SDS011;38541;48.130;8.378;2022-11-14T02:53:56;8.43;;;2.50;;
52248;SDS011;38541;48.130;8.378;2022-11-14T02:56:40;2.95;;;2.72;;
52248;SDS011;38541;48.130;8.378;2022-11-14T02:59:25;2.90;;;2.40;;
52248;SDS011;38541;48.130;8.378;2022-11-14T03:02:11;4.20;;;2.63;;
52248;SDS011;38541;48.130;8.378;2022-11-14T03:04:57;4.00;;;2.45;;
52248;SDS011;38541;48.130;8.378;2022-11-14T03:07:42;4.82;;;2.97;;
52248;SDS011;38541;48.130;8.378;2022-11-14T03:10:28;3.65;;;2.78;;
52248;SDS011;38541;48.130;8.378;2022-11-14T03:13:12;2.80;;;2.58;;
52248;SDS011;38541;48.130;8.378;2022-11-14T03:16:03;2.47;;;2.28;;
52248;SDS011;38541;48.130;8.378;2022-11-14T03:18:50;3.03;;;2.53;;
52248;SDS011;38541;48.130;8.378;2022-11-14T03:21:34;3.08;;;2.28;;
52248;SDS011;38541;48.130;8.378;2022-11-14T03:24:19;3.00;;;2.70;;
52248;SDS011;38541;48.130;8.378;2022-11-14T03:27:04;3.22;;;2.70;;
52248;SDS011;38541;48.130;8.378;2022-11-14T03:29:49;2.50;;;2.30;;
52248;SDS011;38541;48.130;8.378;2022-11-14T03:32:34;2.95;;;2.40;;
52248;SDS011;38541;48.130;8.378;2022-11-14T03:35:19;2.95;;;2.65;;
52248;SDS011;38541;48.130;8.378;2022-11-14T03:38:03;2.55;;;2.35;;
52248;SDS011;38541;48.130;8.378;2022-11-14T03:40:49;2.83;;;2.58;;
52248;SDS011;38541;48.130;8.378;2022-11-14T03:43:34;3.58;;;3.00;;
52248;SDS011;38541;48.130;8.378;2022-11-14T03:46:20;3.78;;;3.03;;
52248;SDS011;38541;48.130;8.378;2022-11-14T03:49:05;2.22;;;2.03;;
52248;SDS011;38541;48.130;8.378;2022-11-14T03:51:50;3.22;;;2.53;;
52248;SDS011;38541;48.130;8.378;2022-11-14T03:54:35;2.13;;;1.92;;
52248;SDS011;38541;48.130;8.378;2022-11-14T03:57:20;1.92;;;1.83;;
52248;SDS011;38541;48.130;8.378;2022-11-14T04:00:05;2.08;;;1.92;;
52248;SDS011;38541;48.130;8.378;2022-11-14T04:02:50;2.65;;;2.45;;
52248;SDS011;38541;48.130;8.378;2022-11-14T04:05:35;2.58;;;2.30;;
52248;SDS011;38541;48.130;8.378;2022-11-14T04:08:20;2.90;;;2.35;;
52248;SDS011;38541;48.130;8.378;2022-11-14T04:11:05;2.70;;;2.50;;
52248;SDS011;38541;48.130;8.378;2022-11-14T04:13:50;2.05;;;1.95;;
52248;SDS011;38541;48.130;8.378;2022-11-14T04:16:35;2.83;;;2.50;;
52248;SDS011;38541;48.130;8.378;2022-11-14T04:19:19;2.38;;;2.20;;
52248;SDS011;38541;48.130;8.378;2022-11-14T04:22:04;3.90;;;3.50;;
52248;SDS011;38541;48.130;8.378;2022-11-14T04:24:50;4.05;;;3.38;;
52248;SDS011;38541;48.130;8.378;2022-11-14T04:27:34;3.80;;;3.50;;
52248;SDS011;38541;48.130;8.378;2022-11-14T04:30:20;3.78;;;3.35;;
52248;SDS011;38541;48.130;8.378;2022-11-14T04:33:04;3.95;;;3.35;;
52248;SDS011;38541;48.130;8.378;2022-11-14T04:35:49;3.47;;;3.10;;
52248;SDS011;38541;48.130;8.378;2022-11-14T04:38:34;3.97;;;3.58;;
52248;SDS011;38541;48.130;8.378;2022-11-14T04:41:20;4.53;;;3.75;;
52248;SDS011;38541;48.130;8.378;2022-11-14T04:44:05;4.47;;;3.97;;
52248;SDS011;38541;48.130;8.378;2022-11-14T04:46:50;4.47;;;3.88;;
52248;SDS011;38541;48.130;8.378;2022-11-14T04:49:35;4.55;;;3.85;;
52248;SDS011;38541;48.130;8.378;2022-11-14T04:52:20;5.35;;;3.50;;
52248;SDS011;38541;48.130;8.378;2022-11-14T04:55:05;3.85;;;3.47;;
52248;SDS011;38541;48.130;8.378;2022-11-14T04:57:54;4.47;;;3.22;;
52248;SDS011;38541;48.130;8.378;2022-11-14T05:00:40;3.42;;;3.13;;
52248;SDS011;38541;48.130;8.378;2022-11-14T05:03:25;4.25;;;3.55;;
52248;SDS011;38541;48.130;8.378;2022-11-14T05:06:10;3.92;;;3.47;;
52248;SDS011;38541;48.130;8.378;2022-11-14T05:08:55;3.95;;;3.55;;
52248;SDS011;38541;48.130;8.378;2022-11-14T05:11:40;3.83;;;3.30;;
52248;SDS011;38541;48.130;8.378;2022-11-14T05:14:24;3.63;;;3.10;;
52248;SDS011;38541;48.130;8.378;2022-11-14T05:17:09;5.00;;;4.20;;
52248;SDS011;38541;48.130;8.378;2022-11-14T05:19:54;3.67;;;3.38;;
52248;SDS011;38541;48.130;8.378;2022-11-14T05:22:39;3.42;;;3.13;;
52248;SDS011;38541;48.130;8.378;2022-11-14T05:25:24;4.22;;;3.22;;
52248;SDS011;38541;48.130;8.378;2022-11-14T05:28:09;3.08;;;2.78;;
52248;SDS011;38541;48.130;8.378;2022-11-14T05:31:01;4.40;;;3.45;;
52248;SDS011;38541;48.130;8.378;2022-11-14T05:33:47;2.97;;;2.67;;
52248;SDS011;38541;48.130;8.378;2022-11-14T05:36:32;3.47;;;3.25;;
52248;SDS011;38541;48.130;8.378;2022-11-14T05:39:17;4.40;;;3.97;;
52248;SDS011;38541;48.130;8.378;2022-11-14T05:42:02;4.72;;;4.25;;
52248;SDS011;38541;48.130;8.378;2022-11-14T05:44:47;4.53;;;4.03;;
52248;SDS011;38541;48.130;8.378;2022-11-14T05:47:32;5.65;;;3.95;;
52248;SDS011;38541;48.130;8.378;2022-11-14T05:50:17;5.13;;;4.55;;
52248;SDS011;38541;48.130;8.378;2022-11-14T05:53:02;4.53;;;3.88;;
52248;SDS011;38541;48.130;8.378;2022-11-14T05:55:47;5.47;;;4.65;;
52248;SDS011;38541;48.130;8.378;2022-11-14T05:58:33;4.95;;;4.40;;
52248;SDS011;38541;48.130;8.378;2022-11-14T06:01:19;6.13;;;4.85;;
52248;SDS011;38541;48.130;8.378;2022-11-14T06:04:04;8.90;;;6.00;;
52248;SDS011;38541;48.130;8.378;2022-11-14T06:06:50;5.70;;;4.43;;
52248;SDS011;38541;48.130;8.378;2022-11-14T06:09:35;8.15;;;5.65;;
52248;SDS011;38541;48.130;8.378;2022-11-14T06:12:20;7.22;;;5.18;;
52248;SDS011;38541;48.130;8.378;2022-11-14T06:15:05;7.75;;;5.72;;
52248;SDS011;38541;48.130;8.378;2022-11-14T06:17:51;6.40;;;5.57;;
52248;SDS011;38541;48.130;8.378;2022-11-14T06:20:37;5.65;;;4.78;;
52248;SDS011;38541;48.130;8.378;2022-11-14T06:23:22;7.05;;;5.78;;
52248;SDS011;38541;48.130;8.378;2022-11-14T06:26:21;8.10;;;5.88;;
52248;SDS011;38541;48.130;8.378;2022-11-14T06:29:14;6.95;;;5.82;;
52248;SDS011;38541;48.130;8.378;2022-11-14T06:31:59;6.97;;;5.68;;
52248;SDS011;38541;48.130;8.378;2022-11-14T06:34:43;8.18;;;6.60;;
52248;SDS011;38541;48.130;8.378;2022-11-14T06:37:28;8.70;;;6.43;;
52248;SDS011;38541;48.130;8.378;2022-11-14T06:40:17;8.68;;;7.05;;
52248;SDS011;38541;48.130;8.378;2022-11-14T06:43:02;9.63;;;7.60;;
52248;SDS011;38541;48.130;8.378;2022-11-14T06:45:47;9.98;;;7.65;;
52248;SDS011;38541;48.130;8.378;2022-11-14T06:48:32;8.05;;;6.28;;
52248;SDS011;38541;48.130;8.378;2022-11-14T06:51:17;11.80;;;8.35;;
52248;SDS011;38541;48.130;8.378;2022-11-14T06:54:02;10.95;;;7.50;;
52248;SDS011;38541;48.130;8.378;2022-11-14T06:56:48;10.43;;;7.38;;
52248;SDS011;38541;48.130;8.378;2022-11-14T06:59:33;9.07;;;6.85;;
52248;SDS011;38541;48.130;8.378;2022-11-14T07:02:18;9.93;;;7.32;;
52248;SDS011;38541;48.130;8.378;2022-11-14T07:05:06;9.13;;;7.70;;
52248;SDS011;38541;48.130;8.378;2022-11-14T07:07:51;10.02;;;7.72;;
52248;SDS011;38541;48.130;8.378;2022-11-14T07:10:36;10.32;;;7.53;;
52248;SDS011;38541;48.130;8.378;2022-11-14T07:13:21;8.35;;;6.65;;
52248;SDS011;38541;48.130;8.378;2022-11-14T07:16:06;11.52;;;7.38;;
52248;SDS011;38541;48.130;8.378;2022-11-14T07:18:51;7.82;;;6.30;;
52248;SDS011;38541;48.130;8.378;2022-11-14T07:21:36;8.13;;;6.70;;
52248;SDS011;38541;48.130;8.378;2022-11-14T07:24:22;7.82;;;6.65;;
52248;SDS011;38541;48.130;8.378;2022-11-14T07:27:06;8.70;;;6.47;;
52248;SDS011;38541;48.130;8.378;2022-11-14T07:29:54;8.52;;;6.43;;
52248;SDS011;38541;48.130;8.378;2022-11-14T07:32:39;8.23;;;6.47;;
52248;SDS011;38541;48.130;8.378;2022-11-14T07:35:25;7.38;;;6.18;;
52248;SDS011;38541;48.130;8.378;2022-11-14T07:38:10;7.05;;;5.70;;
52248;SDS011;38541;48.130;8.378;2022-11-14T07:40:55;8.85;;;6.20;;
52248;SDS011;38541;48.130;8.378;2022-11-14T07:43:44;6.47;;;5.63;;
52248;SDS011;38541;48.130;8.378;2022-11-14T07:46:29;6.68;;;5.85;;
52248;SDS011;38541;48.130;8.378;2022-11-14T07:49:14;6.15;;;4.90;;
52248;SDS011;38541;48.130;8.378;2022-11-14T07:52:00;6.13;;;4.88;;
52248;SDS011;38541;48.130;8.378;2022-11-14T07:54:44;5.38;;;4.13;;
52248;SDS011;38541;48.130;8.378;2022-11-14T07:57:29;4.53;;;3.78;;
52248;SDS011;38541;48.130;8.378;2022-11-14T08:00:19;5.35;;;4.25;;
52248;SDS011;38541;48.130;8.378;2022-11-14T08:03:05;4.82;;;3.90;;
52248;SDS011;38541;48.130;8.378;2022-11-14T08:05:50;4.32;;;3.67;;
52248;SDS011;38541;48.130;8.378;2022-11-14T08:08:36;3.55;;;3.03;;
52248;SDS011;38541;48.130;8.378;2022-11-14T08:11:21;2.88;;;2.55;;
52248;SDS011;38541;48.130;8.378;2022-11-14T08:14:26;3.25;;;2.85;;
52248;SDS011;38541;48.130;8.378;2022-11-14T08:17:11;2.60;;;2.30;;
52248;SDS011;38541;48.130;8.378;2022-11-14T08:19:56;3.08;;;2.67;;
52248;SDS011;38541;48.130;8.378;2022-11-14T08:22:41;2.58;;;2.38;;
52248;SDS011;38541;48.130;8.378;2022-11-14T08:25:26;2.42;;;2.13;;
52248;SDS011;38541;48.130;8.378;2022-11-14T08:28:11;2.63;;;2.42;;
52248;SDS011;38541;48.130;8.378;2022-11-14T08:31:00;2.97;;;2.65;;
52248;SDS011;38541;48.130;8.378;2022-11-14T08:33:46;3.13;;;2.70;;
52248;SDS011;38541;48.130;8.378;2022-11-14T08:36:33;3.45;;;2.97;;
52248;SDS011;38541;48.130;8.378;2022-11-14T08:39:18;2.60;;;2.38;;
52248;SDS011;38541;48.130;8.378;2022-11-14T08:42:03;2.70;;;2.50;;
52248;SDS011;38541;48.130;8.378;2022-11-14T08:44:48;3.13;;;2.40;;
52248;SDS011;38541;48.130;8.378;2022-11-14T08:47:36;2.67;;;2.35;;
52248;SDS011;38541;48.130;8.378;2022-11-14T08:50:21;2.47;;;2.28;;
52248;SDS011;38541;48.130;8.378;2022-11-14T08:53:07;2.72;;;2.40;;
52248;SDS011;38541;48.130;8.378;2022-11-14T08:55:52;2.45;;;2.25;;
52248;SDS011;38541;48.130;8.378;2022-11-14T08:58:37;2.45;;;2.25;;
52248;SDS011;38541;48.130;8.378;2022-11-14T09:01:22;3.22;;;2.35;;
52248;SDS011;38541;48.130;8.378;2022-11-14T09:04:07;2.92;;;2.20;;
52248;SDS011;38541;48.130;8.378;2022-11-14T09:06:52;3.08;;;2.72;;
52248;SDS011;38541;48.130;8.378;2022-11-14T09:09:37;2.83;;;2.00;;
52248;SDS011;38541;48.130;8.378;2022-11-14T09:12:23;2.25;;;1.90;;
52248;SDS011;38541;48.130;8.378;2022-11-14T09:15:08;2.58;;;2.38;;
52248;SDS011;38541;48.130;8.378;2022-11-14T09:17:54;2.20;;;2.00;;
52248;SDS011;38541;48.130;8.378;2022-11-14T09:20:39;2.25;;;2.03;;
52248;SDS011;38541;48.130;8.378;2022-11-14T09:23:24;3.00;;;2.25;;
52248;SDS011;38541;48.130;8.378;2022-11-14T09:26:10;1.80;;;1.70;;
52248;SDS011;38541;48.130;8.378;2022-11-14T09:28:55;3.30;;;1.85;;
52248;SDS011;38541;48.130;8.378;2022-11-14T09:31:40;2.00;;;1.80;;
52248;SDS011;38541;48.130;8.378;2022-11-14T09:34:25;2.08;;;1.83;;
52248;SDS011;38541;48.130;8.378;2022-11-14T09:37:10;1.92;;;1.63;;
52248;SDS011;38541;48.130;8.378;2022-11-14T09:39:54;1.60;;;1.50;;
52248;SDS011;38541;48.130;8.378;2022-11-14T09:43:01;2.05;;;1.80;;
52248;SDS011;38541;48.130;8.378;2022-11-14T09:46:03;1.70;;;1.60;;
52248;SDS011;38541;48.130;8.378;2022-11-14T09:49:01;1.48;;;1.40;;
52248;SDS011;38541;48.130;8.378;2022-11-14T09:51:48;1.52;;;1.42;;
52248;SDS011;38541;48.130;8.378;2022-11-14T09:54:39;2.35;;;1.88;;
52248;SDS011;38541;48.130;8.378;2022-11-14T09:57:41;1.27;;;1.17;;
52248;SDS011;38541;48.130;8.378;2022-11-14T10:10:08;1.25;;;1.25;;
52248;SDS011;38541;48.130;8.378;2022-11-14T10:25:29;1.77;;;1.30;;
52248;SDS011;38541;48.130;8.378;2022-11-14T10:35:16;1.08;;;1.00;;
52248;SDS011;38541;48.130;8.378;2022-11-14T10:38:25;1.35;;;1.25;;
52248;SDS011;38541;48.130;8.378;2022-11-14T10:41:15;1.45;;;1.13;;
52248;SDS011;38541;48.130;8.378;2022-11-14T10:44:22;1.13;;;1.13;;
52248;SDS011;38541;48.130;8.378;2022-11-14T10:47:13;1.02;;;1.02;;
52248;SDS011;38541;48.130;8.378;2022-11-14T10:50:18;2.33;;;1.40;;
52248;SDS011;38541;48.130;8.378;2022-11-14T10:58:59;1.58;;;1.48;;
52248;SDS011;38541;48.130;8.378;2022-11-14T11:01:51;1.40;;;1.30;;
52248;SDS011;38541;48.130;8.378;2022-11-14T11:04:38;1.40;;;1.30;;
52248;SDS011;38541;48.130;8.378;2022-11-14T11:07:25;1.50;;;1.23;;
52248;SDS011;38541;48.130;8.378;2022-11-14T11:10:28;1.40;;;1.30;;
52248;SDS011;38541;48.130;8.378;2022-11-14T11:13:36;1.65;;;1.55;;
52248;SDS011;38541;48.130;8.378;2022-11-14T11:16:32;2.03;;;1.50;;
52248;SDS011;38541;48.130;8.378;2022-11-14T11:19:25;1.42;;;1.30;;
52248;SDS011;38541;48.130;8.378;2022-11-14T11:25:26;1.30;;;1.20;;
52248;SDS011;38541;48.130;8.378;2022-11-14T11:31:04;1.55;;;1.30;;
52248;SDS011;38541;48.130;8.378;2022-11-14T11:33:51;1.50;;;1.10;;
52248;SDS011;38541;48.130;8.378;2022-11-14T11:36:38;1.40;;;1.30;;
52248;SDS011;38541;48.130;8.378;2022-11-14T11:39:30;2.55;;;2.13;;
52248;SDS011;38541;48.130;8.378;2022-11-14T11:42:21;1.83;;;1.42;;
52248;SDS011;38541;48.130;8.378;2022-11-14T11:45:31;1.50;;;1.40;;
52248;SDS011;38541;48.130;8.378;2022-11-14T11:48:18;1.70;;;1.50;;
52248;SDS011;38541;48.130;8.378;2022-11-14T11:51:05;2.30;;;1.50;;
52248;SDS011;38541;48.130;8.378;2022-11-14T11:53:59;1.65;;;1.55;;
52248;SDS011;38541;48.130;8.378;2022-11-14T11:56:52;1.77;;;1.60;;
52248;SDS011;38541;48.130;8.378;2022-11-14T11:59:49;1.88;;;1.77;;
52248;SDS011;38541;48.130;8.378;2022-11-14T12:02:40;1.63;;;1.52;;
52248;SDS011;38541;48.130;8.378;2022-11-14T12:05:40;1.77;;;1.67;;
52248;SDS011;38541;48.130;8.378;2022-11-14T12:11:23;1.50;;;1.40;;
52248;SDS011;38541;48.130;8.378;2022-11-14T12:18:00;2.53;;;2.00;;
52248;SDS011;38541;48.130;8.378;2022-11-14T12:21:09;1.60;;;1.50;;
52248;SDS011;38541;48.130;8.378;2022-11-14T12:24:19;2.22;;;1.58;;
52248;SDS011;38541;48.130;8.378;2022-11-14T12:27:22;2.75;;;1.60;;
52248;SDS011;38541;48.130;8.378;2022-11-14T12:30:10;2.05;;;1.83;;
52248;SDS011;38541;48.130;8.378;2022-11-14T12:32:58;1.98;;;1.75;;
52248;SDS011;38541;48.130;8.378;2022-11-14T12:35:49;1.95;;;1.85;;
52248;SDS011;38541;48.130;8.378;2022-11-14T12:38:47;2.30;;;2.10;;
52248;SDS011;38541;48.130;8.378;2022-11-14T12:41:36;2.25;;;2.10;;
52248;SDS011;38541;48.130;8.378;2022-11-14T12:47:16;1.85;;;1.75;;
52248;SDS011;38541;48.130;8.378;2022-11-14T12:50:25;2.30;;;2.05;;
52248;SDS011;38541;48.130;8.378;2022-11-14T13:05:32;2.78;;;2.40;;
52248;SDS011;38541;48.130;8.378;2022-11-14T13:08:49;3.30;;;2.35;;
52248;SDS011;38541;48.130;8.378;2022-11-14T13:11:46;2.50;;;2.30;;
52248;SDS011;38541;48.130;8.378;2022-11-14T13:14:51;2.38;;;2.17;;
52248;SDS011;38541;48.130;8.378;2022-11-14T13:18:03;2.28;;;2.08;;
52248;SDS011;38541;48.130;8.378;2022-11-14T13:21:18;2.72;;;2.30;;
52248;SDS011;38541;48.130;8.378;2022-11-14T13:27:41;2.58;;;2.38;;
52248;SDS011;38541;48.130;8.378;2022-11-14T13:34:00;2.67;;;2.25;;
52248;SDS011;38541;48.130;8.378;2022-11-14T13:37:20;2.30;;;2.10;;
52248;SDS011;38541;48.130;8.378;2022-11-14T13:40:15;2.20;;;1.98;;
52248;SDS011;38541;48.130;8.378;2022-11-14T13:49:51;4.00;;;3.20;;
52248;SDS011;38541;48.130;8.378;2022-11-14T13:52:43;2.80;;;2.50;;
52248;SDS011;38541;48.130;8.378;2022-11-14T14:04:39;2.60;;;2.40;;
52248;SDS011;38541;48.130;8.378;2022-11-14T14:13:54;2.53;;;2.33;;
52248;SDS011;38541;48.130;8.378;2022-11-14T14:16:51;2.95;;;2.45;;
52248;SDS011;38541;48.130;8.378;2022-11-14T14:25:25;4.43;;;2.35;;
52248;SDS011;38541;48.130;8.378;2022-11-14T14:31:09;2.50;;;2.30;;
52248;SDS011;38541;48.130;8.378;2022-11-14T14:33:55;3.28;;;2.97;;
52248;SDS011;38541;48.130;8.378;2022-11-14T14:36:47;2.83;;;2.45;;
52248;SDS011;38541;48.130;8.378;2022-11-14T14:39:33;3.05;;;2.78;;
52248;SDS011;38541;48.130;8.378;2022-11-14T14:42:18;3.13;;;2.83;;
52248;SDS011;38541;48.130;8.378;2022-11-14T14:45:03;3.75;;;2.92;;
52248;SDS011;38541;48.130;8.378;2022-11-14T14:47:58;3.53;;;3.22;;
52248;SDS011;38541;48.130;8.378;2022-11-14T14:50:48;3.53;;;3.17;;
52248;SDS011;38541;48.130;8.378;2022-11-14T14:53:49;3.33;;;3.03;;
52248;SDS011;38541;48.130;8.378;2022-11-14T14:56:36;4.03;;;3.63;;
52248;SDS011;38541;48.130;8.378;2022-11-14T14:59:22;4.35;;;3.65;;
52248;SDS011;38541;48.130;8.378;2022-11-14T15:02:16;4.10;;;3.35;;
52248;SDS011;38541;48.130;8.378;2022-11-14T15:05:03;4.65;;;3.65;;
52248;SDS011;38541;48.130;8.378;2022-11-14T15:07:49;3.53;;;3.22;;
52248;SDS011;38541;48.130;8.378;2022-11-14T15:10:36;3.10;;;2.90;;
52248;SDS011;38541;48.130;8.378;2022-11-14T15:13:22;3.10;;;2.80;;
52248;SDS011;38541;48.130;8.378;2022-11-14T15:16:09;4.13;;;3.10;;
52248;SDS011;38541;48.130;8.378;2022-11-14T15:18:55;5.30;;;3.40;;
52248;SDS011;38541;48.130;8.378;2022-11-14T15:24:27;3.80;;;3.42;;
52248;SDS011;38541;48.130;8.378;2022-11-14T15:27:13;4.00;;;3.45;;
52248;SDS011;38541;48.130;8.378;2022-11-14T15:30:00;4.63;;;3.63;;
52248;SDS011;38541;48.130;8.378;2022-11-14T15:32:49;4.82;;;3.70;;
52248;SDS011;38541;48.130;8.378;2022-11-14T15:35:37;5.25;;;4.25;;
52248;SDS011;38541;48.130;8.378;2022-11-14T15:38:23;5.20;;;3.88;;
52248;SDS011;38541;48.130;8.378;2022-11-14T15:41:29;5.20;;;3.65;;
52248;SDS011;38541;48.130;8.378;2022-11-14T15:44:32;4.47;;;3.45;;
52248;SDS011;38541;48.130;8.378;2022-11-14T15:47:19;5.18;;;3.88;;
52248;SDS011;38541;48.130;8.378;2022-11-14T15:52:59;5.45;;;3.85;;
52248;SDS011;38541;48.130;8.378;2022-11-14T15:55:46;4.97;;;4.47;;
52248;SDS011;38541;48.130;8.378;2022-11-14T15:58:31;4.07;;;3.72;;
52248;SDS011;38541;48.130;8.378;2022-11-14T16:01:19;5.97;;;4.90;;
52248;SDS011;38541;48.130;8.378;2022-11-14T16:04:09;5.95;;;4.45;;
52248;SDS011;38541;48.130;8.378;2022-11-14T16:06:59;4.65;;;3.78;;
52248;SDS011;38541;48.130;8.378;2022-11-14T16:09:44;5.10;;;4.40;;
52248;SDS011;38541;48.130;8.378;2022-11-14T16:12:29;5.40;;;4.13;;
52248;SDS011;38541;48.130;8.378;2022-11-14T16:15:14;4.93;;;4.18;;
52248;SDS011;38541;48.130;8.378;2022-11-14T16:18:00;4.45;;;4.05;;
52248;SDS011;38541;48.130;8.378;2022-11-14T16:20:45;5.03;;;3.15;;
52248;SDS011;38541;48.130;8.378;2022-11-14T16:23:30;3.78;;;2.65;;
52248;SDS011;38541;48.130;8.378;2022-11-14T16:26:15;2.92;;;2.60;;
52248;SDS011;38541;48.130;8.378;2022-11-14T16:29:00;4.97;;;3.08;;
52248;SDS011;38541;48.130;8.378;2022-11-14T16:31:45;4.38;;;3.30;;
52248;SDS011;38541;48.130;8.378;2022-11-14T16:34:32;2.15;;;1.95;;
52248;SDS011;38541;48.130;8.378;2022-11-14T16:37:16;3.03;;;1.90;;
52248;SDS011;38541;48.130;8.378;2022-11-14T16:40:01;2.75;;;2.10;;
52248;SDS011;38541;48.130;8.378;2022-11-14T16:42:47;2.30;;;1.70;;
52248;SDS011;38541;48.130;8.378;2022-11-14T16:45:33;1.95;;;1.67;;
52248;SDS011;38541;48.130;8.378;2022-11-14T16:48:23;2.60;;;2.00;;
52248;SDS011;38541;48.130;8.378;2022-11-14T16:51:08;2.15;;;1.95;;
52248;SDS011;38541;48.130;8.378;2022-11-14T16:54:13;2.45;;;2.25;;
52248;SDS011;38541;48.130;8.378;2022-11-14T16:56:58;2.35;;;1.90;;
52248;SDS011;38541;48.130;8.378;2022-11-14T16:59:43;1.70;;;1.60;;
52248;SDS011;38541;48.130;8.378;2022-11-14T17:02:28;1.98;;;1.88;;
52248;SDS011;38541;48.130;8.378;2022-11-14T17:05:13;3.00;;;2.20;;
52248;SDS011;38541;48.130;8.378;2022-11-14T17:07:58;1.83;;;1.73;;
52248;SDS011;38541;48.130;8.378;2022-11-14T17:10:44;2.60;;;2.40;;
52248;SDS011;38541;48.130;8.378;2022-11-14T17:13:30;2.38;;;2.17;;
52248;SDS011;38541;48.130;8.378;2022-11-14T17:16:16;5.40;;;2.70;;
52248;SDS011;38541;48.130;8.378;2022-11-14T17:19:01;3.28;;;2.60;;
52248;SDS011;38541;48.130;8.378;2022-11-14T17:21:46;2.03;;;1.83;;
52248;SDS011;38541;48.130;8.378;2022-11-14T17:24:31;2.88;;;2.22;;
52248;SDS011;38541;48.130;8.378;2022-11-14T17:27:16;5.82;;;5.22;;
52248;SDS011;38541;48.130;8.378;2022-11-14T17:30:01;3.33;;;3.03;;
52248;SDS011;38541;48.130;8.378;2022-11-14T17:32:46;4.40;;;4.00;;
52248;SDS011;38541;48.130;8.378;2022-11-14T17:35:38;3.25;;;3.05;;
52248;SDS011;38541;48.130;8.378;2022-11-14T17:38:23;2.67;;;2.45;;
52248;SDS011;38541;48.130;8.378;2022-11-14T17:41:08;2.60;;;2.40;;
52248;SDS011;38541;48.130;8.378;2022-11-14T17:43:53;3.92;;;2.28;;
52248;SDS011;38541;48.130;8.378;2022-11-14T17:46:46;2.05;;;1.88;;
52248;SDS011;38541;48.130;8.378;2022-11-14T17:49:31;2.72;;;2.50;;
52248;SDS011;38541;48.130;8.378;2022-11-14T17:52:16;3.33;;;3.03;;
52248;SDS011;38541;48.130;8.378;2022-11-14T17:55:01;2.05;;;1.95;;
52248;SDS011;38541;48.130;8.378;2022-11-14T17:57:46;2.95;;;2.50;;
52248;SDS011;38541;48.130;8.378;2022-11-14T18:00:31;3.70;;;3.40;;
52248;SDS011;38541;48.130;8.378;2022-11-14T18:03:16;3.70;;;3.28;;
52248;SDS011;38541;48.130;8.378;2022-11-14T18:06:08;2.97;;;2.67;;
52248;SDS011;38541;48.130;8.378;2022-11-14T18:08:54;2.42;;;2.20;;
52248;SDS011;38541;48.130;8.378;2022-11-14T18:11:39;3.47;;;3.17;;
52248;SDS011;38541;48.130;8.378;2022-11-14T18:14:25;3.67;;;2.50;;
52248;SDS011;38541;48.130;8.378;2022-11-14T18:17:09;2.60;;;2.40;;
52248;SDS011;38541;48.130;8.378;2022-11-14T18:19:57;2.33;;;2.13;;
52248;SDS011;38541;48.130;8.378;2022-11-14T18:22:44;2.58;;;2.38;;
52248;SDS011;38541;48.130;8.378;2022-11-14T18:25:29;3.55;;;3.25;;
52248;SDS011;38541;48.130;8.378;2022-11-14T18:28:15;3.33;;;2.85;;
52248;SDS011;38541;48.130;8.378;2022-11-14T18:31:00;3.25;;;2.35;;
52248;SDS011;38541;48.130;8.378;2022-11-14T18:33:47;5.53;;;4.20;;
52248;SDS011;38541;48.130;8.378;2022-11-14T18:36:32;2.85;;;2.50;;
52248;SDS011;38541;48.130;8.378;2022-11-14T18:39:17;2.20;;;2.00;;
52248;SDS011;38541;48.130;8.378;2022-11-14T18:42:02;2.75;;;2.53;;
52248;SDS011;38541;48.130;8.378;2022-11-14T18:44:47;4.35;;;3.58;;